Time;durP1;ratioP1;P1;durP2;ratioP2;P2;SDS_P1;SDS_P2;PMS_P1;PMS_P2;Temp;Humidity;BMP_temperature;BMP_pressure;BME280_temperature;BME280_humidity;BME280_pressure;Samples;Min_cycle;Max_cycle;Signal;HPM_P1;HPM_P2
2022/10/03 00:02:39;;;;;;;7.70;6.90;;;15.10;99.90;;;;;;5034303;28;20210;-57
2022/10/03 00:05:23;;;;;;;6.20;5.50;;;15.10;99.90;;;;;;5033554;28;20236;-57
2022/10/03 00:08:04;;;;;;;7.23;6.53;;;15.10;99.90;;;;;;5033315;28;20675;-57
2022/10/03 00:10:45;;;;;;;6.70;6.10;;;15.10;99.90;;;;;;5034379;28;20205;-59
2022/10/03 00:13:20;;;;;;;8.10;6.10;;;15.00;99.90;;;;;;5033285;28;20234;-57
2022/10/03 00:15:54;;;;;;;6.43;5.83;;;14.90;99.90;;;;;;5034231;28;20242;-55
2022/10/03 00:18:35;;;;;;;7.03;6.27;;;14.80;99.90;;;;;;5034024;28;20214;-55
2022/10/03 00:21:23;;;;;;;6.47;5.60;;;14.80;99.90;;;;;;5034115;28;20213;-57
2022/10/03 00:24:00;;;;;;;7.13;6.43;;;14.90;99.90;;;;;;5033474;28;20202;-57
2022/10/03 00:26:37;;;;;;;8.73;6.47;;;15.00;99.90;;;;;;5034098;28;20305;-56
2022/10/03 00:29:22;;;;;;;7.43;6.63;;;15.00;99.90;;;;;;5033803;28;20678;-57
2022/10/03 00:31:58;;;;;;;7.00;6.30;;;15.10;99.90;;;;;;5033667;28;20206;-56
2022/10/03 00:34:36;;;;;;;7.70;6.90;;;15.20;99.90;;;;;;5033337;28;20271;-56
2022/10/03 00:37:23;;;;;;;7.70;6.87;;;15.30;99.90;;;;;;5033865;28;20675;-56
2022/10/03 00:40:11;;;;;;;8.27;7.13;;;15.30;99.90;;;;;;5033714;28;20552;-56
2022/10/03 00:43:02;;;;;;;8.00;7.20;;;15.20;99.90;;;;;;5033595;28;20244;-56
2022/10/03 00:46:00;;;;;;;7.90;7.20;;;15.20;99.90;;;;;;5032113;28;20245;-56
2022/10/03 00:49:06;;;;;;;8.73;7.33;;;15.30;99.90;;;;;;5024787;28;20210;-57
2022/10/03 00:51:44;;;;;;;7.53;6.80;;;15.30;99.90;;;;;;5013022;28;20217;-56
2022/10/03 00:54:33;;;;;;;8.30;7.47;;;15.40;99.90;;;;;;5032593;28;20226;-57
2022/10/03 00:57:22;;;;;;;8.73;7.30;;;15.40;99.90;;;;;;5033221;28;20210;-57
2022/10/03 01:00:06;;;;;;;7.87;7.17;;;15.40;99.90;;;;;;5031423;28;20592;-57
2022/10/03 01:02:49;;;;;;;8.83;7.97;;;15.20;99.90;;;;;;5033430;28;20568;-57
2022/10/03 01:05:29;;;;;;;10.67;9.30;;;15.10;99.90;;;;;;5032489;28;20586;-56
2022/10/03 01:08:10;;;;;;;9.57;7.80;;;15.10;99.90;;;;;;5033082;28;20209;-57
2022/10/03 01:10:45;;;;;;;9.07;7.97;;;15.10;99.90;;;;;;5033069;28;20206;-57
2022/10/03 01:13:26;;;;;;;9.23;8.10;;;15.20;99.90;;;;;;5032259;28;20217;-56
2022/10/03 01:15:59;;;;;;;9.23;8.33;;;15.20;99.90;;;;;;5033394;28;20666;-58
2022/10/03 01:18:38;;;;;;;8.97;7.73;;;15.20;99.90;;;;;;5033121;28;20210;-59
2022/10/03 01:21:15;;;;;;;9.37;8.37;;;15.20;99.90;;;;;;5032985;28;20217;-57
2022/10/03 01:24:11;;;;;;;8.70;7.80;;;15.20;99.90;;;;;;5032128;28;20627;-59
2022/10/03 01:26:53;;;;;;;9.73;8.60;;;15.30;99.90;;;;;;5032780;28;20256;-58
2022/10/03 01:32:26;;;;;;;11.27;8.83;;;15.20;99.90;;;;;;5032638;28;20588;-58
2022/10/03 01:35:02;;;;;;;9.67;8.67;;;15.20;99.90;;;;;;5031990;28;20238;-58
2022/10/03 01:37:33;;;;;;;9.97;8.70;;;15.20;99.90;;;;;;5032616;28;20221;-58
2022/10/03 01:40:11;;;;;;;10.00;9.00;;;15.20;99.90;;;;;;5032679;28;20213;-60
2022/10/03 01:42:44;;;;;;;10.93;9.37;;;15.20;99.90;;;;;;5032423;28;20574;-60
2022/10/03 01:45:25;;;;;;;10.33;9.23;;;15.10;99.90;;;;;;5032028;28;20225;-60
2022/10/03 01:47:58;;;;;;;10.37;8.77;;;15.10;99.90;;;;;;5032533;28;20256;-60
2022/10/03 01:50:32;;;;;;;12.33;9.33;;;15.00;99.90;;;;;;5032432;28;20650;-60
2022/10/03 01:53:04;;;;;;;11.07;9.47;;;14.90;99.90;;;;;;5032395;28;20210;-59
2022/10/03 01:55:41;;;;;;;12.93;9.33;;;14.80;99.90;;;;;;5031830;28;20234;-62
2022/10/03 01:58:11;;;;;;;11.20;9.20;;;14.70;99.90;;;;;;5032292;28;20229;-59
2022/10/03 02:00:47;;;;;;;10.20;9.13;;;14.70;99.90;;;;;;5032416;28;20210;-59
2022/10/03 02:03:21;;;;;;;10.57;9.47;;;14.70;99.90;;;;;;5032426;28;20216;-59
2022/10/03 02:05:54;;;;;;;11.50;9.37;;;14.70;99.90;;;;;;5032513;28;20262;-60
2022/10/03 02:08:30;;;;;;;12.23;9.33;;;14.80;99.90;;;;;;5032359;28;20210;-60
2022/10/03 02:11:02;;;;;;;12.10;9.30;;;14.90;99.90;;;;;;5032346;28;20220;-59
2022/10/03 02:13:39;;;;;;;11.50;9.40;;;14.90;99.90;;;;;;5031299;28;20217;-60
2022/10/03 02:16:14;;;;;;;10.23;9.00;;;15.00;99.90;;;;;;5031954;28;20230;-60
2022/10/03 02:18:47;;;;;;;10.33;8.93;;;15.00;99.90;;;;;;5032127;28;20209;-60
2022/10/03 02:21:19;;;;;;;12.10;9.33;;;15.10;99.90;;;;;;5032191;28;20202;-60
2022/10/03 02:23:47;;;;;;;11.23;9.70;;;15.10;99.90;;;;;;5031537;28;20243;-60
2022/10/03 02:26:43;;;;;;;10.93;9.70;;;15.10;99.90;;;;;;5031661;28;20238;-60
2022/10/03 02:29:44;;;;;;;10.67;9.37;;;15.10;99.90;;;;;;5030238;28;20202;-60
2022/10/03 02:32:59;;;;;;;13.13;10.07;;;15.20;99.90;;;;;;5031877;28;20567;-60
2022/10/03 02:35:54;;;;;;;10.97;9.33;;;15.20;99.90;;;;;;5031190;28;20238;-60
2022/10/03 02:38:39;;;;;;;12.13;9.77;;;15.20;99.90;;;;;;5024837;28;20206;-60
2022/10/03 02:41:40;;;;;;;10.53;9.43;;;15.20;99.90;;;;;;5031919;28;20233;-60
2022/10/03 02:44:53;;;;;;;12.03;9.33;;;15.20;99.90;;;;;;5028986;28;20201;-59
2022/10/03 02:47:52;;;;;;;12.30;10.10;;;15.30;99.90;;;;;;5007663;28;20214;-60
2022/10/03 02:50:58;;;;;;;12.57;9.90;;;15.20;99.90;;;;;;5031774;28;20234;-60
2022/10/03 02:54:07;;;;;;;12.10;9.97;;;15.10;99.90;;;;;;5031106;28;20206;-59
2022/10/03 02:57:01;;;;;;;13.03;9.83;;;15.10;99.90;;;;;;5031686;28;20233;-62
2022/10/03 03:00:05;;;;;;;11.20;9.57;;;15.10;99.90;;;;;;5009171;28;20201;-60
2022/10/03 03:03:04;;;;;;;15.10;9.03;;;15.10;99.90;;;;;;5010531;28;20209;-62
2022/10/03 03:06:11;;;;;;;12.87;9.43;;;15.10;99.90;;;;;;5031050;28;20226;-61
2022/10/03 03:09:10;;;;;;;12.63;9.97;;;15.00;99.90;;;;;;5032061;28;20221;-62
2022/10/03 03:12:08;;;;;;;11.20;9.03;;;15.00;99.90;;;;;;5035493;28;20206;-61
2022/10/03 03:15:04;;;;;;;10.73;9.10;;;15.00;99.90;;;;;;5034663;28;20234;-61
2022/10/03 03:17:37;;;;;;;12.03;9.07;;;15.00;99.90;;;;;;5035387;28;20202;-61
2022/10/03 03:20:20;;;;;;;11.90;9.23;;;15.00;99.90;;;;;;5035247;28;20225;-60
2022/10/03 03:23:28;;;;;;;14.10;9.43;;;15.00;99.90;;;;;;5035148;28;20592;-59
2022/10/03 03:26:09;;;;;;;10.50;9.40;;;15.00;99.90;;;;;;5031564;28;20222;-60
2022/10/03 03:28:45;;;;;;;10.73;8.97;;;14.90;99.90;;;;;;5035029;28;20288;-59
2022/10/03 03:31:15;;;;;;;12.30;9.10;;;15.00;99.90;;;;;;5035224;28;20208;-59
2022/10/03 03:33:54;;;;;;;10.10;9.07;;;15.00;99.90;;;;;;5034312;28;20708;-60
2022/10/03 03:36:35;;;;;;;10.80;9.00;;;15.10;99.90;;;;;;5034932;28;20276;-60
2022/10/03 03:39:13;;;;;;;10.90;8.57;;;15.00;99.90;;;;;;5035043;28;20654;-60
2022/10/03 03:41:54;;;;;;;10.97;8.70;;;14.90;99.90;;;;;;5035103;28;20202;-60
2022/10/03 03:44:46;;;;;;;11.00;9.23;;;14.90;99.90;;;;;;5034314;28;20336;-60
2022/10/03 03:47:30;;;;;;;11.63;8.53;;;15.00;99.90;;;;;;5034829;28;20225;-60
2022/10/03 03:50:15;;;;;;;11.00;8.43;;;15.00;99.90;;;;;;5034737;28;20214;-60
2022/10/03 03:53:00;;;;;;;12.83;8.97;;;15.10;99.90;;;;;;5034856;28;20294;-61
2022/10/03 03:55:49;;;;;;;11.77;9.40;;;15.20;99.90;;;;;;5033886;28;20737;-60
2022/10/03 03:58:32;;;;;;;14.40;10.90;;;15.20;99.90;;;;;;5034808;28;20213;-60
2022/10/03 04:01:32;;;;;;;9.17;8.27;;;15.20;99.90;;;;;;5034704;28;20202;-60
2022/10/03 04:04:13;;;;;;;9.60;8.33;;;15.20;99.90;;;;;;5023806;28;20210;-60
2022/10/03 04:06:53;;;;;;;15.77;9.63;;;15.30;99.90;;;;;;5034780;28;20230;-60
2022/10/03 04:09:56;;;;;;;12.97;9.17;;;15.30;99.90;;;;;;5034453;28;20728;-60
2022/10/03 04:12:37;;;;;;;11.23;8.57;;;15.30;99.90;;;;;;5031830;28;20528;-60
2022/10/03 04:15:34;;;;;;;10.67;9.00;;;15.30;99.90;;;;;;5033735;28;20793;-60
2022/10/03 04:21:27;;;;;;;10.40;8.77;;;15.30;99.90;;;;;;5033030;28;20201;-60
2022/10/03 04:24:04;;;;;;;11.20;8.80;;;15.30;99.90;;;;;;5033818;28;20241;-60
2022/10/03 04:26:43;;;;;;;12.70;9.10;;;15.30;99.90;;;;;;5034163;28;20226;-60
2022/10/03 04:29:34;;;;;;;11.70;8.63;;;15.20;99.90;;;;;;5034080;28;20217;-60
2022/10/03 04:32:11;;;;;;;9.63;8.63;;;15.10;99.90;;;;;;5034487;28;20206;-61
2022/10/03 04:34:50;;;;;;;12.50;8.93;;;15.10;99.90;;;;;;5033154;28;20221;-60
2022/10/03 04:37:31;;;;;;;11.37;8.93;;;15.10;99.90;;;;;;5033942;28;20210;-61
2022/10/03 04:40:10;;;;;;;13.33;9.67;;;15.10;99.90;;;;;;5033784;28;20625;-60
2022/10/03 04:42:47;;;;;;;9.40;8.40;;;15.20;99.90;;;;;;5033988;28;20306;-61
2022/10/03 04:45:34;;;;;;;10.43;8.33;;;15.20;99.90;;;;;;5033070;28;20233;-60
2022/10/03 04:48:15;;;;;;;9.83;8.77;;;15.10;99.90;;;;;;5033757;28;20206;-61
2022/10/03 04:50:47;;;;;;;12.07;8.43;;;15.10;99.90;;;;;;5033797;28;20206;-61
2022/10/03 04:53:23;;;;;;;11.43;8.30;;;14.90;99.90;;;;;;5033711;28;20214;-60
2022/10/03 04:55:55;;;;;;;10.53;8.60;;;14.90;99.90;;;;;;5032833;28;20229;-60
2022/10/03 04:58:34;;;;;;;11.47;8.53;;;14.80;99.90;;;;;;5033348;28;20578;-60
2022/10/03 05:01:11;;;;;;;13.67;9.60;;;14.70;99.90;;;;;;5033654;28;20228;-61
2022/10/03 05:03:45;;;;;;;8.83;7.93;;;14.60;99.90;;;;;;5032812;28;20696;-60
2022/10/03 05:06:27;;;;;;;11.57;8.60;;;14.60;99.90;;;;;;5033186;28;20710;-62
2022/10/03 05:09:03;;;;;;;12.40;8.43;;;14.60;99.90;;;;;;5033160;28;20206;-60
2022/10/03 05:11:41;;;;;;;10.30;8.93;;;14.60;99.90;;;;;;5033397;28;20210;-63
2022/10/03 05:14:17;;;;;;;13.97;11.67;;;14.60;99.90;;;;;;5032715;28;20210;-60
2022/10/03 05:16:52;;;;;;;10.17;8.10;;;14.60;99.90;;;;;;5032792;28;20592;-60
2022/10/03 05:19:56;;;;;;;16.60;12.47;;;14.60;99.90;;;;;;5033453;28;20210;-61
2022/10/03 05:22:39;;;;;;;12.43;9.50;;;14.60;99.90;;;;;;5017511;28;20678;-59
2022/10/03 05:25:20;;;;;;;10.60;9.17;;;14.60;99.90;;;;;;5032077;28;20229;-60
2022/10/03 05:27:54;;;;;;;15.30;9.60;;;14.60;99.90;;;;;;5033118;28;20285;-60
2022/10/03 05:30:34;;;;;;;10.03;8.90;;;14.60;99.90;;;;;;5033060;28;20206;-61
2022/10/03 05:33:07;;;;;;;10.87;8.43;;;14.50;99.90;;;;;;5032597;28;20216;-61
2022/10/03 05:35:49;;;;;;;12.03;9.37;;;14.40;99.90;;;;;;5032008;28;20230;-61
2022/10/03 05:38:48;;;;;;;11.33;9.40;;;14.20;99.90;;;;;;5032682;28;20210;-61
2022/10/03 05:41:22;;;;;;;13.03;9.83;;;14.10;99.90;;;;;;5032734;28;20256;-61
2022/10/03 05:43:58;;;;;;;14.50;9.23;;;14.00;99.90;;;;;;5032039;28;20271;-63
2022/10/03 05:46:41;;;;;;;12.97;9.57;;;13.90;99.90;;;;;;5032390;28;20225;-62
2022/10/03 05:49:39;;;;;;;11.37;9.00;;;13.90;99.90;;;;;;5032875;28;20217;-61
2022/10/03 05:52:40;;;;;;;16.83;12.33;;;14.00;99.90;;;;;;5032401;28;20713;-60
2022/10/03 05:55:32;;;;;;;17.50;10.97;;;14.10;99.90;;;;;;5031916;28;20240;-62
2022/10/03 05:58:19;;;;;;;14.50;10.03;;;14.30;99.90;;;;;;5029633;28;20210;-62
2022/10/03 06:01:10;;;;;;;13.77;10.60;;;14.40;99.90;;;;;;5032318;28;20214;-60
2022/10/03 06:04:07;;;;;;;13.50;10.80;;;14.40;99.90;;;;;;5032272;28;20648;-61
2022/10/03 06:06:48;;;;;;;12.70;9.97;;;14.50;99.90;;;;;;5032298;28;20233;-61
2022/10/03 06:09:42;;;;;;;12.23;10.20;;;14.50;99.90;;;;;;5032213;28;20206;-60
2022/10/03 06:12:13;;;;;;;12.67;10.30;;;14.60;99.90;;;;;;5032294;28;20229;-61
2022/10/03 06:15:08;;;;;;;14.30;10.97;;;14.70;99.90;;;;;;5031099;28;20670;-61
2022/10/03 06:17:55;;;;;;;16.87;13.10;;;14.80;99.90;;;;;;5028565;28;20210;-61
2022/10/03 06:20:54;;;;;;;10.87;9.50;;;14.80;99.90;;;;;;5031191;28;20713;-60
2022/10/03 06:23:52;;;;;;;14.20;10.23;;;14.80;99.90;;;;;;5024173;28;20756;-61
2022/10/03 06:26:45;;;;;;;13.67;10.57;;;14.60;99.90;;;;;;5031317;28;20233;-61
2022/10/03 06:29:46;;;;;;;16.10;10.20;;;14.60;99.90;;;;;;5031422;28;20206;-61
2022/10/03 06:32:50;;;;;;;14.13;9.87;;;14.60;99.90;;;;;;5020585;28;20201;-60
2022/10/03 06:36:01;;;;;;;19.97;14.70;;;14.60;99.90;;;;;;5030398;28;20240;-61
2022/10/03 06:39:10;;;;;;;13.03;10.80;;;14.70;99.90;;;;;;5031027;28;20210;-61
2022/10/03 06:42:19;;;;;;;13.67;10.73;;;14.70;99.90;;;;;;5031106;28;20633;-60
2022/10/03 06:45:21;;;;;;;12.43;9.83;;;14.90;99.90;;;;;;5032140;28;20234;-61
2022/10/03 06:48:07;;;;;;;11.40;9.07;;;15.10;99.90;;;;;;5034511;28;20595;-60
2022/10/03 06:50:59;;;;;;;13.57;10.17;;;15.20;99.90;;;;;;5034703;28;20214;-61
2022/10/03 06:53:54;;;;;;;12.40;9.83;;;15.10;99.90;;;;;;5034797;28;20209;-61
2022/10/03 06:56:44;;;;;;;11.93;10.07;;;15.20;99.90;;;;;;5034362;28;20638;-61
2022/10/03 06:59:37;;;;;;;14.27;10.50;;;15.20;99.90;;;;;;5034607;28;20206;-61
2022/10/03 07:02:27;;;;;;;13.03;11.20;;;15.30;99.90;;;;;;5034437;28;20209;-61
2022/10/03 07:05:25;;;;;;;13.50;11.47;;;15.40;99.90;;;;;;5033665;28;20234;-61
2022/10/03 07:08:24;;;;;;;13.20;10.17;;;15.40;99.90;;;;;;5031791;28;20242;-61
2022/10/03 07:11:17;;;;;;;11.40;10.23;;;15.40;99.90;;;;;;5034381;28;20213;-60
2022/10/03 07:17:27;;;;;;;22.53;12.93;;;15.30;99.90;;;;;;5089239;28;21073;-60
2022/10/03 07:20:13;;;;;;;17.47;10.20;;;15.40;99.90;;;;;;5089349;28;20208;-62
2022/10/03 07:23:26;;;;;;;12.20;9.90;;;15.50;99.90;;;;;;5089588;28;20618;-61
2022/10/03 07:26:29;;;;;;;16.53;9.80;;;15.50;99.90;;;;;;5088610;28;20727;-58
2022/10/03 07:29:18;;;;;;;11.83;8.90;;;15.40;99.90;;;;;;5090035;28;20208;-61
2022/10/03 07:31:58;;;;;;;10.80;7.63;;;15.10;99.90;;;;;;5089076;28;20664;-61
2022/10/03 07:35:08;;;;;;;16.57;9.33;;;15.00;99.90;;;;;;5088455;28;20208;-61
2022/10/03 07:41:12;;;;;;;15.83;9.00;;;14.50;99.90;;;;;;5089060;28;20286;-61
2022/10/03 07:44:29;;;;;;;16.60;9.53;;;14.40;99.90;;;;;;5055404;28;20245;-61
2022/10/03 07:47:43;;;;;;;18.27;9.70;;;14.30;99.90;;;;;;5001953;28;20675;-60
2022/10/03 07:50:42;;;;;;;12.17;9.77;;;14.30;99.90;;;;;;5089153;28;20204;-61
2022/10/03 07:53:21;;;;;;;13.83;9.87;;;14.20;99.90;;;;;;5078507;28;20208;-60
2022/10/03 07:56:01;;;;;;;15.90;9.67;;;14.50;99.90;;;;;;5088385;28;20232;-61
2022/10/03 07:58:53;;;;;;;17.73;10.40;;;14.80;99.90;;;;;;5089367;28;20211;-61
2022/10/03 08:01:41;;;;;;;12.30;9.47;;;15.00;99.90;;;;;;5089127;28;20215;-62
2022/10/03 08:04:43;;;;;;;14.33;9.63;;;15.30;99.90;;;;;;5088740;28;20204;-62
2022/10/03 08:07:29;;;;;;;15.10;9.20;;;15.30;99.90;;;;;;5089046;28;20663;-62
2022/10/03 08:10:09;;;;;;;13.63;9.43;;;15.00;99.90;;;;;;5088873;28;20669;-62
2022/10/03 08:12:52;;;;;;;12.83;8.77;;;15.20;99.90;;;;;;5088535;28;20640;-61
2022/10/03 08:15:29;;;;;;;12.23;9.23;;;15.50;99.90;;;;;;5088051;28;20232;-61
2022/10/03 08:18:31;;;;;;;13.37;8.10;;;15.50;99.90;;;;;;5088424;28;20207;-61
2022/10/03 08:21:00;;;;;;;16.00;8.93;;;15.40;99.90;;;;;;5088205;28;20215;-62
2022/10/03 08:24:10;;;;;;;13.23;7.97;;;15.50;99.90;;;;;;5088547;28;20329;-62
2022/10/03 08:27:07;;;;;;;15.87;8.73;;;15.70;99.90;;;;;;5085087;28;20224;-60
2022/10/03 08:30:08;;;;;;;10.53;6.60;;;16.00;99.90;;;;;;5072643;28;20216;-61
2022/10/03 08:32:59;;;;;;;10.20;7.10;;;16.00;99.90;;;;;;5064424;28;20255;-61
2022/10/03 08:35:47;;;;;;;10.57;6.72;;;15.90;99.90;;;;;;5074131;28;20265;-61
2022/10/03 08:38:47;;;;;;;11.90;6.07;;;16.10;99.90;;;;;;5071828;28;20205;-62
2022/10/03 08:41:53;;;;;;;12.05;6.63;;;16.30;99.90;;;;;;5074368;28;20204;-61
2022/10/03 08:44:52;;;;;;;12.63;6.20;;;16.40;99.90;;;;;;5073957;28;20205;-61
2022/10/03 08:47:50;;;;;;;9.30;5.57;;;16.20;99.90;;;;;;5074228;28;20205;-61
2022/10/03 08:50:46;;;;;;;12.80;6.03;;;15.80;99.90;;;;;;5074188;28;20668;-61
2022/10/03 08:53:55;;;;;;;9.07;5.70;;;15.90;99.90;;;;;;5074244;28;20205;-61
2022/10/03 08:56:33;;;;;;;8.85;5.20;;;16.10;99.90;;;;;;5074283;28;20225;-61
2022/10/03 08:59:42;;;;;;;10.63;4.80;;;16.40;99.90;;;;;;5074242;28;20509;-61
2022/10/03 09:02:33;;;;;;;8.77;5.07;;;16.80;99.90;;;;;;5073931;28;20205;-61
2022/10/03 09:05:37;;;;;;;8.52;4.80;;;17.30;99.90;;;;;;5073477;28;20235;-61
2022/10/03 09:08:32;;;;;;;8.95;4.93;;;17.70;99.90;;;;;;5048199;28;20211;-61
2022/10/03 09:11:42;;;;;;;12.88;5.03;;;17.80;99.90;;;;;;5074105;28;20205;-61
2022/10/03 09:14:38;;;;;;;12.18;5.75;;;17.80;99.90;;;;;;5073330;28;20205;-61
2022/10/03 09:17:23;;;;;;;19.05;12.68;;;18.00;99.90;;;;;;5074108;28;20269;-61
2022/10/03 09:20:32;;;;;;;9.65;5.50;;;18.10;99.90;;;;;;5073729;28;20213;-61
2022/10/03 09:23:23;;;;;;;12.20;5.07;;;18.40;99.90;;;;;;5073737;28;20204;-61
2022/10/03 09:26:16;;;;;;;6.63;4.40;;;18.70;99.90;;;;;;5072983;28;20739;-61
2022/10/03 09:29:21;;;;;;;10.70;4.90;;;18.70;99.90;;;;;;5065758;28;20212;-61
2022/10/03 09:32:28;;;;;;;8.77;5.03;;;18.80;99.90;;;;;;5073753;28;20213;-61
2022/10/03 09:35:32;;;;;;;9.23;4.78;;;18.60;99.90;;;;;;5069961;28;20236;-61
2022/10/03 09:38:35;;;;;;;11.95;4.85;;;18.50;99.90;;;;;;5073069;28;20211;-60
2022/10/03 09:41:43;;;;;;;10.13;5.70;;;18.40;99.90;;;;;;5050652;28;20231;-59
2022/10/03 09:44:35;;;;;;;26.35;20.98;;;18.30;99.90;;;;;;5072896;28;20205;-60
2022/10/03 09:48:03;;;;;;;15.88;6.40;;;18.30;99.90;;;;;;5073246;28;20208;-60
2022/10/03 09:51:03;;;;;;;12.18;8.48;;;18.20;99.90;;;;;;5073102;28;20204;-59
2022/10/03 09:53:46;;;;;;;11.30;6.10;;;18.40;99.90;;;;;;5073184;28;20209;-59
2022/10/03 09:56:48;;;;;;;10.75;4.78;;;18.50;99.90;;;;;;5072207;28;20235;-60
2022/10/03 09:59:38;;;;;;;9.55;4.70;;;18.50;99.90;;;;;;5048382;28;20227;-59
2022/10/03 10:02:32;;;;;;;9.02;3.85;;;18.50;99.90;;;;;;5073469;28;20212;-59
2022/10/03 10:05:23;;;;;;;9.63;4.85;;;18.40;99.90;;;;;;5072039;28;20701;-60
2022/10/03 10:08:17;;;;;;;9.30;4.18;;;18.20;99.90;;;;;;5072994;28;20213;-59
2022/10/03 10:11:14;;;;;;;10.48;3.83;;;18.00;99.90;;;;;;5072961;28;20205;-59
2022/10/03 10:14:18;;;;;;;10.05;4.05;;;18.10;99.90;;;;;;5062435;28;20626;-59
2022/10/03 10:17:25;;;;;;;11.95;4.65;;;18.40;99.90;;;;;;5072556;28;20229;-59
2022/10/03 10:20:01;;;;;;;8.57;4.03;;;18.60;99.90;;;;;;5060580;28;20201;-59
2022/10/03 10:23:03;;;;;;;9.95;4.22;;;18.50;99.90;;;;;;5072899;28;20212;-60
2022/10/03 10:26:03;;;;;;;8.30;3.65;;;18.60;99.90;;;;;;5071884;28;20444;-59
2022/10/03 10:28:52;;;;;;;10.32;4.13;;;18.80;99.90;;;;;;5046873;28;20215;-60
2022/10/03 10:32:01;;;;;;;9.68;3.72;;;18.90;99.90;;;;;;5067107;28;20212;-67
2022/10/03 10:35:10;;;;;;;7.53;4.15;;;19.00;99.90;;;;;;5070668;28;20311;-66
2022/10/03 10:38:06;;;;;;;8.20;4.28;;;19.30;99.90;;;;;;5062005;28;20226;-62
2022/10/03 10:41:10;;;;;;;6.47;3.72;;;19.50;99.90;;;;;;5071199;28;20200;-62
2022/10/03 10:44:04;;;;;;;10.88;3.50;;;19.60;99.90;;;;;;5071212;28;20220;-60
2022/10/03 10:47:06;;;;;;;7.25;3.40;;;19.80;99.90;;;;;;5069450;28;20743;-63
2022/10/03 10:50:18;;;;;;;9.75;3.88;;;20.00;99.90;;;;;;5070751;28;20210;-64
2022/10/03 10:53:15;;;;;;;9.07;3.22;;;20.30;99.90;;;;;;5070771;28;20205;-64
2022/10/03 10:56:16;;;;;;;7.15;3.33;;;20.00;99.90;;;;;;5070450;28;20231;-65
2022/10/03 10:59:18;;;;;;;9.20;3.20;;;19.90;99.90;;;;;;5070820;28;20584;-63
2022/10/03 11:02:14;;;;;;;9.50;3.33;;;19.60;99.90;;;;;;5070732;28;20208;-63
2022/10/03 11:05:39;;;;;;;9.20;3.55;;;19.40;99.90;;;;;;5067396;28;20209;-69
2022/10/03 11:08:41;;;;;;;6.93;3.53;;;19.00;99.90;;;;;;5070736;28;20212;-63
2022/10/03 11:11:46;;;;;;;10.73;3.75;;;18.90;99.90;;;;;;5068966;28;20240;-62
2022/10/03 11:14:47;;;;;;;6.63;3.33;;;18.70;99.90;;;;;;5068895;28;20212;-60
2022/10/03 11:17:43;;;;;;;11.23;4.00;;;18.40;99.90;;;;;;5069934;28;20225;-59
2022/10/03 11:20:52;;;;;;;10.95;3.53;;;18.00;99.90;;;;;;5069406;28;20307;-59
2022/10/03 11:24:11;;;;;;;9.25;3.95;;;18.10;99.90;;;;;;5070678;28;20299;-62
2022/10/03 11:27:20;;;;;;;7.50;3.85;;;18.30;99.90;;;;;;5069869;28;20220;-60
2022/10/03 11:30:23;;;;;;;10.02;4.63;;;18.10;99.90;;;;;;5070937;28;20209;-62
2022/10/03 11:33:29;;;;;;;7.72;3.42;;;18.10;99.90;;;;;;5057685;28;20201;-62
2022/10/03 11:36:34;;;;;;;9.02;3.80;;;18.00;99.90;;;;;;5069591;28;20232;-63
2022/10/03 11:39:05;;;;;;;9.88;3.90;;;17.80;99.90;;;;;;5044251;28;20205;-61
2022/10/03 11:41:47;;;;;;;9.57;3.95;;;17.80;99.90;;;;;;5070390;28;20283;-60
2022/10/03 11:44:21;;;;;;;7.53;3.78;;;17.90;99.90;;;;;;5070020;28;20208;-61
2022/10/03 11:47:12;;;;;;;9.13;3.70;;;18.00;99.90;;;;;;5070211;28;20986;-62
2022/10/03 11:50:00;;;;;;;9.43;3.53;;;18.30;99.90;;;;;;5070203;28;20205;-62
2022/10/03 11:52:32;;;;;;;9.60;4.55;;;18.70;99.90;;;;;;5067841;28;20673;-64
2022/10/03 11:55:20;;;;;;;8.75;4.20;;;19.10;99.90;;;;;;5069384;28;20236;-60
2022/10/03 11:57:59;;;;;;;11.20;4.30;;;19.40;99.90;;;;;;5070290;28;20228;-60
2022/10/03 12:00:31;;;;;;;9.27;3.55;;;19.60;99.90;;;;;;5070111;28;20623;-59
2022/10/03 12:03:12;;;;;;;8.68;3.42;;;19.90;99.90;;;;;;5072505;28;20228;-62
2022/10/03 12:08:53;;;;;;;7.95;3.60;;;20.00;99.90;;;;;;5073135;28;20248;-65
2022/10/03 12:08:55;;;;;;;8.18;3.58;;;19.70;99.90;;;;;;5074057;28;20300;-60
2022/10/03 12:11:27;;;;;;;9.30;3.35;;;19.30;99.90;;;;;;5073941;28;20676;-60
2022/10/03 12:14:27;;;;;;;7.90;3.20;;;19.40;99.90;;;;;;5073619;28;20205;-64
2022/10/03 12:17:11;;;;;;;7.13;3.63;;;19.30;99.90;;;;;;5073503;28;20362;-61
2022/10/03 12:19:50;;;;;;;7.32;3.33;;;19.10;99.90;;;;;;5074188;28;20208;-62
2022/10/03 12:22:29;;;;;;;5.22;2.88;;;19.00;99.90;;;;;;5073433;28;20220;-61
2022/10/03 12:25:06;;;;;;;5.78;2.60;;;19.10;99.90;;;;;;5071309;28;20224;-58
2022/10/03 12:27:43;;;;;;;6.50;2.58;;;19.10;99.90;;;;;;5073613;28;20902;-57
2022/10/03 12:30:15;;;;;;;7.18;2.33;;;19.00;99.90;;;;;;5074929;28;20208;-57
2022/10/03 12:32:57;;;;;;;5.30;2.13;;;18.90;99.90;;;;;;5074963;28;20659;-57
2022/10/03 12:35:39;;;;;;;5.28;2.15;;;18.90;99.90;;;;;;5074130;28;20229;-58
2022/10/03 12:38:32;;;;;;;6.22;2.45;;;18.80;99.90;;;;;;5075031;28;20228;-57
2022/10/03 12:41:11;;;;;;;6.85;2.20;;;19.10;99.90;;;;;;5075237;28;20208;-57
2022/10/03 12:43:55;;;;;;;9.40;2.58;;;19.40;99.90;;;;;;5074871;28;20212;-58
2022/10/03 12:46:31;;;;;;;7.30;2.50;;;19.30;99.90;;;;;;5074207;28;20828;-56
2022/10/03 12:49:03;;;;;;;9.07;2.42;;;19.30;99.90;;;;;;5074781;28;20231;-58
2022/10/03 12:51:43;;;;;;;7.43;2.28;;;19.20;99.90;;;;;;5074471;28;20228;-57
2022/10/03 12:54:23;;;;;;;3.92;2.20;;;19.30;99.90;;;;;;5074751;28;20565;-57
2022/10/03 12:57:01;;;;;;;4.70;1.95;;;19.60;99.90;;;;;;5074508;28;20228;-59
2022/10/03 12:59:41;;;;;;;3.83;1.90;;;19.60;99.90;;;;;;5074303;28;20204;-59
2022/10/03 13:02:24;;;;;;;4.90;2.00;;;19.60;99.90;;;;;;5074583;28;20266;-59
2022/10/03 13:05:17;;;;;;;4.43;1.90;;;19.70;99.90;;;;;;5073933;28;20631;-59
2022/10/03 13:07:51;;;;;;;6.82;2.03;;;19.80;99.90;;;;;;5074196;28;20251;-59
2022/10/03 13:10:28;;;;;;;4.68;1.80;;;20.00;99.90;;;;;;5074368;28;20269;-59
2022/10/03 13:13:07;;;;;;;4.53;1.85;;;19.90;99.90;;;;;;5074394;28;20266;-59
2022/10/03 13:15:54;;;;;;;3.13;1.55;;;19.80;99.90;;;;;;5073330;28;20723;-59
2022/10/03 13:18:35;;;;;;;3.92;1.90;;;19.90;99.90;;;;;;5074559;28;20225;-59
2022/10/03 13:21:08;;;;;;;5.57;1.70;;;20.00;99.90;;;;;;5074102;28;20213;-59
2022/10/03 13:23:46;;;;;;;3.75;1.90;;;20.00;99.90;;;;;;5073966;28;20262;-59
2022/10/03 13:26:18;;;;;;;5.70;2.30;;;19.80;99.90;;;;;;5073153;28;20228;-59
2022/10/03 13:29:16;;;;;;;4.40;2.20;;;19.70;99.90;;;;;;5074412;28;20200;-57
2022/10/03 13:32:03;;;;;;;5.70;2.30;;;19.70;99.90;;;;;;5065992;28;20208;-56
2022/10/03 13:34:34;;;;;;;4.40;1.80;;;19.80;99.90;;;;;;5073398;28;20208;-57
2022/10/03 13:37:08;;;;;;;7.07;2.20;;;19.60;99.90;;;;;;5073589;28;20247;-57
2022/10/03 13:39:45;;;;;;;5.50;2.05;;;19.70;99.90;;;;;;5073679;28;20287;-57
2022/10/03 13:42:19;;;;;;;5.47;2.38;;;20.10;99.90;;;;;;5073852;28;20208;-59
2022/10/03 13:44:53;;;;;;;5.80;2.00;;;20.50;99.90;;;;;;5072736;28;20267;-58
2022/10/03 13:47:42;;;;;;;5.88;2.10;;;21.00;98.90;;;;;;5073398;28;20196;-56
2022/10/03 13:50:17;;;;;;;6.35;1.85;;;21.20;98.50;;;;;;5073345;28;20212;-59
2022/10/03 13:52:48;;;;;;;4.15;2.25;;;20.90;98.20;;;;;;5073216;28;20204;-61
2022/10/03 13:55:26;;;;;;;5.45;2.22;;;21.00;98.00;;;;;;5072762;28;20248;-59
2022/10/03 13:58:19;;;;;;;6.15;2.40;;;21.30;98.10;;;;;;5072830;28;20311;-58
2022/10/03 14:00:57;;;;;;;5.53;2.20;;;21.40;98.60;;;;;;5072991;28;20263;-59
2022/10/03 14:03:35;;;;;;;4.60;1.90;;;21.40;98.70;;;;;;5073115;28;20215;-59
2022/10/03 14:06:11;;;;;;;4.43;2.67;;;21.60;97.50;;;;;;5072455;28;20228;-59
2022/10/03 14:09:07;;;;;;;3.65;2.00;;;21.80;96.60;;;;;;5072856;28;20208;-59
2022/10/03 14:11:43;;;;;;;4.85;2.22;;;21.90;95.20;;;;;;5045768;28;20212;-58
2022/10/03 14:14:34;;;;;;;6.43;2.38;;;21.60;97.70;;;;;;5072683;28;20208;-58
2022/10/03 14:17:10;;;;;;;6.40;2.50;;;20.90;99.20;;;;;;5072343;28;20277;-58
2022/10/03 14:19:50;;;;;;;4.57;2.05;;;20.70;99.60;;;;;;5072934;28;20588;-58
2022/10/03 14:22:37;;;;;;;6.50;2.45;;;20.60;99.80;;;;;;5072650;28;20647;-58
2022/10/03 14:25:17;;;;;;;6.93;2.28;;;20.30;99.90;;;;;;5071221;28;20225;-58
2022/10/03 14:27:53;;;;;;;5.90;2.60;;;20.10;99.90;;;;;;5072390;28;20201;-58
2022/10/03 14:30:22;;;;;;;6.40;2.40;;;19.90;99.90;;;;;;5072329;28;20208;-58
2022/10/03 14:32:58;;;;;;;6.10;2.70;;;19.60;99.90;;;;;;5072275;28;20208;-58
2022/10/03 14:35:39;;;;;;;6.95;2.72;;;19.40;99.90;;;;;;5071380;28;20235;-58
2022/10/03 14:38:56;;;;;;;9.15;2.90;;;19.30;99.90;;;;;;5072222;28;20225;-58
2022/10/03 14:41:19;;;;;;;7.80;3.47;;;19.20;99.90;;;;;;5072290;28;20237;-58